createdAt,value
2023-05-12T00:06:05.183Z,96105.38
2023-05-12T00:08:35.095Z,96103.84
2023-05-12T00:15:24.687Z,96102.81
2023-05-12T00:17:53.850Z,96095.47
2023-05-12T00:20:22.918Z,96095.69
2023-05-12T00:22:52.370Z,96096.50
2023-05-12T00:25:21.590Z,96091.69
2023-05-12T00:27:50.672Z,96088.44
2023-05-12T00:30:20.510Z,96091.00
2023-05-12T00:32:51.596Z,96092.59
2023-05-12T00:35:20.633Z,96086.09
2023-05-12T00:42:14.419Z,96089.47
2023-05-12T00:44:43.732Z,96085.97
2023-05-12T00:51:27.907Z,96088.72
2023-05-12T00:53:57.784Z,96093.22
2023-05-12T01:00:53.287Z,96090.28
2023-05-12T01:03:22.656Z,96092.50
2023-05-12T01:05:57.262Z,96081.97
2023-05-12T01:08:28.096Z,96094.44
2023-05-12T01:10:56.987Z,96096.19
2023-05-12T01:13:26.285Z,96093.84
2023-05-12T01:15:56.088Z,96098.72
2023-05-12T01:22:50.515Z,96092.22
2023-05-12T01:25:21.655Z,96096.19
2023-05-12T01:32:11.761Z,96110.34
2023-05-12T01:34:42.626Z,96097.09
2023-05-12T01:41:29.634Z,96111.78
2023-05-12T01:43:59.032Z,96095.06
2023-05-12T01:46:28.319Z,96099.13
2023-05-12T01:48:58.952Z,96110.88
2023-05-12T01:51:28.055Z,96107.09
2023-05-12T01:53:57.458Z,96096.38
2023-05-12T01:56:26.768Z,96102.38
2023-05-12T02:03:14.399Z,96103.72
2023-05-12T02:05:44.920Z,96098.94
2023-05-12T02:12:34.742Z,96098.44
2023-05-12T02:15:03.731Z,96099.34
2023-05-12T02:21:52.313Z,96097.69
2023-05-12T02:24:21.640Z,96099.34
2023-05-12T02:26:51.002Z,96099.34
2023-05-12T02:33:33.239Z,96093.84
2023-05-12T02:36:02.209Z,96098.63
2023-05-12T02:42:45.993Z,96083.22
2023-05-12T02:45:15.496Z,96085.75
2023-05-12T02:47:44.620Z,96088.03
2023-05-12T02:50:13.692Z,96088.94
2023-05-12T02:52:42.843Z,96084.84
2023-05-12T02:55:12.192Z,96091.78
2023-05-12T02:57:41.791Z,96076.69
2023-05-12T03:00:13.336Z,96090.38
2023-05-12T03:02:42.669Z,96085.47
2023-05-12T03:05:12.255Z,96078.31
2023-05-12T03:07:41.439Z,96082.28
2023-05-12T03:10:11.484Z,96087.28
2023-05-12T03:12:40.667Z,96082.38
2023-05-12T03:15:12.722Z,96088.09
2023-05-12T03:17:41.938Z,96069.22
2023-05-12T03:20:11.634Z,96091.88
2023-05-12T03:22:40.918Z,96082.59
2023-05-12T03:25:11.856Z,96061.47
2023-05-12T03:27:41.165Z,96076.06
2023-05-12T03:34:18.467Z,96089.31
2023-05-12T03:36:47.865Z,96076.69
2023-05-12T03:43:35.212Z,96082.50
2023-05-12T03:46:04.397Z,96085.03
2023-05-12T03:48:33.708Z,96079.94
2023-05-12T03:51:04.649Z,96077.91
2023-05-12T03:53:33.725Z,96085.75
2023-05-12T03:56:06.530Z,96075.16
2023-05-12T03:58:35.543Z,96080.16
2023-05-12T04:01:05.134Z,96075.25
2023-05-12T04:03:34.306Z,96072.91
2023-05-12T04:06:06.891Z,96080.06
2023-05-12T04:08:36.399Z,96085.28
2023-05-12T04:15:24.148Z,96083.31
2023-05-12T04:17:53.722Z,96090.38
2023-05-12T04:24:49.176Z,96096.06
2023-05-12T04:27:18.693Z,96097.91
2023-05-12T04:34:06.558Z,96108.31
2023-05-12T04:36:36.177Z,96099.94
2023-05-12T04:39:06.081Z,96103.84
2023-05-12T04:41:37.110Z,96103.63
2023-05-12T04:44:06.623Z,96102.38
2023-05-12T04:46:36.969Z,96095.47
2023-05-12T04:49:06.140Z,96096.19
2023-05-12T04:51:35.436Z,96085.16
2023-05-12T04:54:04.844Z,96086.69
2023-05-12T04:56:34.445Z,96093.63
2023-05-12T04:59:05.177Z,96099.16
2023-05-12T05:05:53.755Z,96104.16
2023-05-12T05:08:22.744Z,96093.53
2023-05-12T05:15:13.160Z,96092.22
2023-05-12T05:17:43.566Z,96112.63
2023-05-12T05:24:31.244Z,96111.28
2023-05-12T05:35:50.868Z,96112.81
2023-05-12T05:38:20.488Z,96121.00
2023-05-12T05:45:02.378Z,96125.69
2023-05-12T05:47:32.772Z,96110.88
2023-05-12T05:50:02.122Z,96124.03
2023-05-12T05:52:32.845Z,96124.88
2023-05-12T05:55:02.170Z,96131.81
2023-05-12T06:01:56.184Z,96140.38
2023-05-12T06:04:25.677Z,96142.72
2023-05-12T06:11:08.612Z,96141.41
2023-05-12T06:13:38.107Z,96149.59
2023-05-12T06:20:25.765Z,96144.38
2023-05-12T06:27:10.228Z,96156.63
2023-05-12T06:29:39.323Z,96153.88
2023-05-12T06:36:21.244Z,96162.44
2023-05-12T06:38:51.363Z,96151.94
2023-05-12T06:41:22.506Z,96150.78
2023-05-12T06:43:53.544Z,96146.94
2023-05-12T06:46:22.716Z,96152.03
2023-05-12T06:48:51.837Z,96146.53
2023-05-12T06:51:20.955Z,96153.97
2023-05-12T06:53:50.446Z,96152.44
2023-05-12T07:00:33.599Z,96160.00
2023-05-12T07:07:21.956Z,96163.06
2023-05-12T07:09:51.253Z,96157.03
2023-05-12T07:16:40.445Z,96173.47
2023-05-12T07:19:10.201Z,96166.16
2023-05-12T07:21:39.446Z,96168.06
2023-05-12T07:24:08.747Z,96160.00
2023-05-12T07:26:38.360Z,96167.97
2023-05-12T07:29:07.958Z,96176.03
2023-05-12T07:31:37.451Z,96172.47
2023-05-12T07:34:08.804Z,96167.66
2023-05-12T07:36:38.213Z,96179.59
2023-05-12T07:43:14.494Z,96169.19
2023-05-12T07:45:43.834Z,96183.59
2023-05-12T07:52:32.780Z,96182.97
2023-05-12T07:55:02.393Z,96175.44
2023-05-12T07:57:32.423Z,96168.81
2023-05-12T08:00:02.647Z,96180.22
2023-05-12T08:02:32.103Z,96187.19
2023-05-12T08:09:21.523Z,96185.09
2023-05-12T08:11:51.719Z,96190.13
2023-05-12T08:18:39.333Z,96188.78
2023-05-12T08:21:09.103Z,96188.19
2023-05-12T08:28:00.246Z,96187.59
2023-05-12T08:39:17.202Z,96202.50
2023-05-12T08:41:56.433Z,96199.72
2023-05-12T08:48:40.912Z,96200.44
2023-05-12T08:51:12.462Z,96205.13
2023-05-12T08:53:43.096Z,96200.22
2023-05-12T08:58:48.854Z,96201.38
2023-05-12T09:01:19.158Z,96202.59
2023-05-12T09:03:49.764Z,96211.25
2023-05-12T09:06:19.321Z,96211.56
2023-05-12T09:08:49.075Z,96207.59
2023-05-12T09:15:43.386Z,96217.84
2023-05-12T09:18:12.530Z,96213.53
2023-05-12T09:25:02.641Z,96215.47
2023-05-12T09:27:32.249Z,96208.31
2023-05-12T09:34:13.452Z,96212.63
2023-05-12T09:41:10.939Z,96231.31
2023-05-12T09:43:47.498Z,96228.75
2023-05-12T09:50:40.850Z,96228.84
2023-05-12T09:53:17.847Z,96216.28
2023-05-12T10:00:21.179Z,96224.34
2023-05-12T10:02:58.800Z,96221.91
2023-05-12T10:09:47.363Z,96222.81
2023-05-12T10:12:16.964Z,96223.03
2023-05-12T10:14:46.576Z,96225.56
2023-05-12T10:17:17.617Z,96222.19
2023-05-12T10:19:47.216Z,96229.56
2023-05-12T10:22:17.850Z,96233.16
2023-05-12T10:24:47.865Z,96236.34
2023-05-12T10:27:18.597Z,96233.56
2023-05-12T10:29:48.875Z,96239.19
2023-05-12T10:32:20.474Z,96229.28
2023-05-12T10:34:49.356Z,96219.19
2023-05-12T10:37:19.172Z,96232.63
2023-05-12T10:39:53.292Z,96240.72
2023-05-12T10:42:26.302Z,96226.81
2023-05-12T10:44:57.048Z,96247.78
2023-05-12T10:47:28.682Z,96244.50
2023-05-12T10:50:00.149Z,96252.34
2023-05-12T10:52:29.193Z,96244.06
2023-05-12T10:55:02.908Z,96250.31
2023-05-12T10:57:32.375Z,96254.59
2023-05-12T11:00:04.429Z,96256.75
2023-05-12T11:02:37.324Z,96250.91
2023-05-12T11:05:13.703Z,96265.25
2023-05-12T11:07:43.871Z,96259.19
2023-05-12T11:10:15.145Z,96254.88
2023-05-12T11:12:45.793Z,96248.66
2023-05-12T11:15:17.266Z,96252.84
2023-05-12T11:17:48.647Z,96262.25
2023-05-12T11:20:24.765Z,96267.88
2023-05-12T11:22:54.478Z,96259.72
2023-05-12T11:25:27.886Z,96258.84
2023-05-12T11:27:56.989Z,96264.22
2023-05-12T11:30:26.155Z,96265.63
2023-05-12T11:33:08.222Z,96263.53
2023-05-12T11:35:38.995Z,96265.94
2023-05-12T11:38:17.832Z,96263.28
2023-05-12T11:40:47.652Z,96285.34
2023-05-12T11:43:22.151Z,96266.63
2023-05-12T11:45:51.864Z,96283.41
2023-05-12T11:48:23.205Z,96288.09
2023-05-12T11:50:52.397Z,96287.78
2023-05-12T11:53:21.592Z,96287.78
2023-05-12T11:55:51.834Z,96293.91
2023-05-12T11:58:23.059Z,96282.75
2023-05-12T12:00:52.153Z,96308.78
2023-05-12T12:03:23.067Z,96302.38
2023-05-12T12:06:02.678Z,96300.94
2023-05-12T12:08:32.447Z,96291.34
2023-05-12T12:11:03.718Z,96311.19
2023-05-12T12:13:33.608Z,96308.59
2023-05-12T12:16:03.084Z,96318.63
2023-05-12T12:18:34.073Z,96315.88
2023-05-12T12:21:03.121Z,96311.94
2023-05-12T12:23:43.895Z,96308.66
2023-05-12T12:26:21.202Z,96312.22
2023-05-12T12:28:50.591Z,96294.44
2023-05-12T12:31:19.698Z,96320.59
2023-05-12T12:33:50.722Z,96324.03
2023-05-12T12:36:20.333Z,96325.94
2023-05-12T12:43:01.428Z,96326.88
2023-05-12T12:45:30.626Z,96325.81
2023-05-12T12:52:13.676Z,96324.66
2023-05-12T12:54:42.764Z,96317.34
2023-05-12T13:01:20.832Z,96324.72
2023-05-12T13:08:18.490Z,96326.66
2023-05-12T13:10:48.099Z,96327.34
2023-05-12T13:17:31.785Z,96325.16
2023-05-12T13:20:01.660Z,96324.97
2023-05-12T13:26:03.136Z,96330.47
2023-05-12T13:32:56.366Z,96328.13
2023-05-12T13:35:27.154Z,96318.81
2023-05-12T13:42:17.549Z,96327.50
2023-05-12T13:49:05.245Z,96327.16
2023-05-12T13:51:34.317Z,96325.44
2023-05-12T13:58:24.358Z,96317.38
2023-05-12T14:00:53.740Z,96333.72
2023-05-12T14:07:43.010Z,96335.25
2023-05-12T14:14:39.375Z,96337.59
2023-05-12T14:17:08.567Z,96333.28
2023-05-12T14:23:51.285Z,96331.03
2023-05-12T14:26:22.021Z,96342.00
2023-05-12T14:33:10.865Z,96350.59
2023-05-12T14:39:55.713Z,96336.88
2023-05-12T14:42:30.445Z,96350.22
2023-05-12T14:49:21.673Z,96361.00
2023-05-12T14:51:51.076Z,96358.69
2023-05-12T14:58:32.429Z,96373.53
2023-05-12T15:05:32.429Z,96364.50
2023-05-12T15:08:12.785Z,96368.69
2023-05-12T15:15:04.431Z,96362.03
2023-05-12T15:17:33.887Z,96357.44
2023-05-12T15:24:30.907Z,96381.34
2023-05-12T15:27:00.313Z,96369.34
2023-05-12T15:33:42.436Z,96372.97
2023-05-12T15:36:12.451Z,96376.81
2023-05-12T15:38:42.768Z,96372.97
2023-05-12T15:41:13.092Z,96370.72
2023-05-12T15:43:42.700Z,96367.06
2023-05-12T15:46:11.934Z,96366.06
2023-05-12T15:48:41.405Z,96380.25
2023-05-12T15:51:10.493Z,96369.97
2023-05-12T15:53:40.108Z,96374.06
2023-05-12T15:56:10.022Z,96378.81
2023-05-12T15:58:40.743Z,96373.28
2023-05-12T16:01:10.246Z,96374.91
2023-05-12T16:03:39.889Z,96373.09
2023-05-12T16:10:27.511Z,96366.81
2023-05-12T16:12:57.520Z,96382.78
2023-05-12T16:19:47.851Z,96368.97
2023-05-12T16:22:17.051Z,96361.50
2023-05-12T16:29:05.609Z,96369.53
2023-05-12T16:31:34.961Z,96376.63
2023-05-12T16:34:04.730Z,96375.31
2023-05-12T16:36:35.551Z,96373.94
2023-05-12T16:39:06.392Z,96373.88
2023-05-12T16:41:35.485Z,96369.50
2023-05-12T16:44:04.680Z,96368.47
2023-05-12T16:50:52.331Z,96366.03
2023-05-12T16:53:22.861Z,96368.97
2023-05-12T17:00:18.702Z,96369.16
2023-05-12T17:02:47.890Z,96369.16
2023-05-12T17:09:02.128Z,96371.97
2023-05-12T17:15:42.779Z,96363.25
2023-05-12T17:18:13.515Z,96373.75
2023-05-12T17:24:50.684Z,96372.94
2023-05-12T17:31:44.613Z,96377.56
2023-05-12T17:34:14.103Z,96381.19
2023-05-12T17:40:56.536Z,96382.94
2023-05-12T17:43:25.736Z,96387.41
2023-05-12T17:49:48.412Z,96388.94
2023-05-12T17:56:36.977Z,96378.41
2023-05-12T17:59:06.281Z,96381.94
2023-05-12T18:05:55.873Z,96393.88
2023-05-12T18:08:25.289Z,96389.59
2023-05-12T18:10:54.690Z,96386.03
2023-05-12T18:13:25.541Z,96387.13
2023-05-12T18:15:54.608Z,96382.97
2023-05-12T18:22:30.597Z,96379.28
2023-05-12T18:24:59.894Z,96387.94
2023-05-12T18:31:36.527Z,96388.78
2023-05-12T18:34:06.088Z,96394.78
2023-05-12T18:36:35.487Z,96393.16
2023-05-12T18:39:05.092Z,96392.94
2023-05-12T18:41:34.189Z,96398.97
2023-05-12T18:44:03.589Z,96398.88
2023-05-12T18:46:32.806Z,96399.03
2023-05-12T18:49:03.725Z,96403.06
2023-05-12T18:51:32.813Z,96405.63
2023-05-12T18:54:02.019Z,96399.03
2023-05-12T18:56:31.313Z,96405.78
2023-05-12T18:59:00.515Z,96414.34
2023-05-12T19:01:29.850Z,96411.97
2023-05-12T19:03:59.006Z,96415.28
2023-05-12T19:06:29.632Z,96413.63
2023-05-12T19:13:04.286Z,96419.44
2023-05-12T19:15:33.592Z,96422.16
2023-05-12T19:22:23.898Z,96418.00
2023-05-12T19:24:53.401Z,96431.66
2023-05-12T19:31:41.518Z,96434.13
2023-05-12T19:34:11.277Z,96430.94
2023-05-12T19:36:40.376Z,96421.44
2023-05-12T19:39:10.801Z,96428.19
2023-05-12T19:41:41.533Z,96423.28
2023-05-12T19:48:22.837Z,96436.91
2023-05-12T19:50:51.834Z,96426.47
2023-05-12T19:57:41.025Z,96427.28
2023-05-12T20:00:11.038Z,96424.09
2023-05-12T20:02:40.390Z,96425.66
2023-05-12T20:05:10.450Z,96415.69
2023-05-12T20:07:39.552Z,96423.09
2023-05-12T20:10:09.967Z,96436.91
2023-05-12T20:12:40.600Z,96428.91
2023-05-12T20:15:11.023Z,96438.22
2023-05-12T20:17:40.289Z,96423.81
2023-05-12T20:20:11.713Z,96428.03
2023-05-12T20:22:40.975Z,96428.47
2023-05-12T20:25:12.929Z,96422.09
2023-05-12T20:27:44.085Z,96416.16
2023-05-12T20:38:44.861Z,96417.72
2023-05-12T20:41:14.153Z,96404.97
2023-05-12T20:47:57.037Z,96406.69
2023-05-12T20:54:44.753Z,96406.50
2023-05-12T20:57:13.640Z,96409.81
2023-05-12T21:04:03.390Z,96415.09
2023-05-12T21:06:33.450Z,96415.09
2023-05-12T21:13:22.759Z,96416.88
2023-05-12T21:20:13.185Z,96411.59
2023-05-12T21:22:42.664Z,96411.78
2023-05-12T21:29:56.441Z,96411.78
2023-05-12T21:32:25.447Z,96410.03
2023-05-12T21:39:15.436Z,96405.94
2023-05-12T21:41:44.842Z,96403.69
2023-05-12T21:44:14.451Z,96407.41
2023-05-12T21:46:44.172Z,96400.75
2023-05-12T21:49:13.460Z,96407.59
2023-05-12T21:51:42.649Z,96400.69
2023-05-12T21:54:12.569Z,96402.78
2023-05-12T21:56:43.397Z,96407.41
2023-05-12T21:59:13.109Z,96403.88
2023-05-12T22:01:42.229Z,96400.41
2023-05-12T22:04:11.281Z,96403.59
2023-05-12T22:06:40.594Z,96398.31
2023-05-12T22:09:09.894Z,96402.78
2023-05-12T22:16:00.466Z,96389.59
2023-05-12T22:18:30.033Z,96399.66
2023-05-12T22:25:17.885Z,96405.06
2023-05-12T22:27:47.608Z,96398.84
2023-05-12T22:34:36.983Z,96405.06
2023-05-12T22:37:06.491Z,96400.31
2023-05-12T22:39:35.791Z,96403.94
2023-05-12T22:46:16.724Z,96400.31
2023-05-12T22:48:46.168Z,96406.94
2023-05-12T22:55:31.074Z,96401.03
2023-05-12T22:58:01.513Z,96405.28
2023-05-12T23:00:33.638Z,96403.75
2023-05-12T23:03:03.673Z,96405.56
2023-05-12T23:05:33.388Z,96406.94
2023-05-12T23:08:03.097Z,96404.56
2023-05-12T23:10:33.936Z,96408.78
2023-05-12T23:13:02.924Z,96411.41
2023-05-12T23:15:32.120Z,96397.75
2023-05-12T23:22:13.630Z,96391.84
2023-05-12T23:24:44.669Z,96402.03
2023-05-12T23:31:27.126Z,96388.84
2023-05-12T23:33:56.637Z,96387.22
2023-05-12T23:40:45.682Z,96387.75
2023-05-12T23:43:15.105Z,96388.94
2023-05-12T23:45:43.980Z,96382.91
2023-05-12T23:48:15.021Z,96388.59
2023-05-12T23:50:44.331Z,96387.84
2023-05-12T23:57:26.630Z,96383.38
2023-05-12T23:59:56.155Z,96391.75
